sensor_id;sensor_type;location;lat;lon;timestamp;pressure;altitude;pressure_sealevel;temperature;humidity
20942;BME280;10630;53.734;10.282;2023-04-07T00:02:02;101465.31;;;9.44;46.38
20942;BME280;10630;53.734;10.282;2023-04-07T00:04:29;101461.44;;;8.99;46.72
20942;BME280;10630;53.734;10.282;2023-04-07T00:06:56;101470.63;;;8.95;47.36
20942;BME280;10630;53.734;10.282;2023-04-07T00:09:23;101462.41;;;8.98;47.73
20942;BME280;10630;53.734;10.282;2023-04-07T00:11:49;101472.84;;;8.80;47.49
20942;BME280;10630;53.734;10.282;2023-04-07T00:14:16;101468.28;;;9.21;47.12
20942;BME280;10630;53.734;10.282;2023-04-07T00:16:43;101465.34;;;9.24;47.14
20942;BME280;10630;53.734;10.282;2023-04-07T00:19:11;101465.06;;;8.98;47.11
20942;BME280;10630;53.734;10.282;2023-04-07T00:21:38;101462.53;;;9.35;46.86
20942;BME280;10630;53.734;10.282;2023-04-07T00:24:04;101469.09;;;9.41;46.59
20942;BME280;10630;53.734;10.282;2023-04-07T00:26:31;101458.75;;;9.28;46.60
20942;BME280;10630;53.734;10.282;2023-04-07T00:28:58;101464.19;;;9.46;46.72
20942;BME280;10630;53.734;10.282;2023-04-07T00:31:25;101466.88;;;9.27;46.38
20942;BME280;10630;53.734;10.282;2023-04-07T00:33:51;101470.47;;;8.86;46.98
20942;BME280;10630;53.734;10.282;2023-04-07T00:36:19;101467.84;;;9.26;47.04
20942;BME280;10630;53.734;10.282;2023-04-07T00:38:46;101462.97;;;8.92;47.10
20942;BME280;10630;53.734;10.282;2023-04-07T00:41:12;101459.91;;;9.06;47.17
20942;BME280;10630;53.734;10.282;2023-04-07T00:43:39;101465.53;;;8.62;47.44
20942;BME280;10630;53.734;10.282;2023-04-07T00:46:06;101462.97;;;8.51;47.90
20942;BME280;10630;53.734;10.282;2023-04-07T00:48:33;101468.34;;;8.70;48.22
20942;BME280;10630;53.734;10.282;2023-04-07T00:51:00;101463.94;;;8.91;47.86
20942;BME280;10630;53.734;10.282;2023-04-07T00:53:28;101465.19;;;9.06;47.27
20942;BME280;10630;53.734;10.282;2023-04-07T00:55:55;101470.03;;;8.62;47.42
20942;BME280;10630;53.734;10.282;2023-04-07T00:58:22;101464.78;;;9.11;47.27
20942;BME280;10630;53.734;10.282;2023-04-07T01:00:54;101471.06;;;9.19;47.28
20942;BME280;10630;53.734;10.282;2023-04-07T01:03:30;101468.69;;;9.56;46.31
20942;BME280;10630;53.734;10.282;2023-04-07T01:06:00;101463.06;;;8.80;46.86
20942;BME280;10630;53.734;10.282;2023-04-07T01:13:45;101463.84;;;8.61;47.50
20942;BME280;10630;53.734;10.282;2023-04-07T01:16:15;101464.81;;;8.60;48.14
20942;BME280;10630;53.734;10.282;2023-04-07T01:18:42;101470.28;;;8.59;47.87
20942;BME280;10630;53.734;10.282;2023-04-07T01:21:13;101468.28;;;8.51;48.06
20942;BME280;10630;53.734;10.282;2023-04-07T01:31:05;101472.88;;;9.09;46.83
20942;BME280;10630;53.734;10.282;2023-04-07T01:33:34;101470.75;;;8.83;47.40
20942;BME280;10630;53.734;10.282;2023-04-07T01:36:04;101474.16;;;8.54;47.83
20942;BME280;10630;53.734;10.282;2023-04-07T01:38:32;101470.94;;;9.50;46.98
20942;BME280;10630;53.734;10.282;2023-04-07T01:40:59;101469.69;;;9.25;46.36
20942;BME280;10630;53.734;10.282;2023-04-07T01:43:26;101470.69;;;8.64;46.94
20942;BME280;10630;53.734;10.282;2023-04-07T01:45:54;101469.72;;;8.55;47.41
20942;BME280;10630;53.734;10.282;2023-04-07T01:48:22;101471.34;;;8.87;47.37
20942;BME280;10630;53.734;10.282;2023-04-07T01:50:49;101463.06;;;8.90;46.84
20942;BME280;10630;53.734;10.282;2023-04-07T01:53:16;101469.78;;;8.84;46.81
20942;BME280;10630;53.734;10.282;2023-04-07T01:55:44;101471.97;;;8.69;47.37
20942;BME280;10630;53.734;10.282;2023-04-07T01:58:10;101477.47;;;8.87;47.33
20942;BME280;10630;53.734;10.282;2023-04-07T02:00:37;101476.16;;;8.72;47.32
20942;BME280;10630;53.734;10.282;2023-04-07T02:03:06;101467.41;;;9.01;47.19
20942;BME280;10630;53.734;10.282;2023-04-07T02:05:37;101471.72;;;8.73;47.19
20942;BME280;10630;53.734;10.282;2023-04-07T02:08:04;101473.97;;;8.77;47.19
20942;BME280;10630;53.734;10.282;2023-04-07T02:10:34;101476.31;;;8.61;47.38
20942;BME280;10630;53.734;10.282;2023-04-07T02:13:02;101479.63;;;8.32;48.40
20942;BME280;10630;53.734;10.282;2023-04-07T02:15:30;101476.13;;;8.52;48.01
20942;BME280;10630;53.734;10.282;2023-04-07T02:17:57;101468.34;;;8.70;47.98
20942;BME280;10630;53.734;10.282;2023-04-07T02:20:25;101474.81;;;8.87;47.65
20942;BME280;10630;53.734;10.282;2023-04-07T02:22:54;101468.63;;;8.36;47.94
20942;BME280;10630;53.734;10.282;2023-04-07T02:25:26;101475.63;;;8.06;48.37
20942;BME280;10630;53.734;10.282;2023-04-07T02:27:54;101470.34;;;8.16;48.31
20942;BME280;10630;53.734;10.282;2023-04-07T02:30:21;101472.13;;;8.37;48.20
20942;BME280;10630;53.734;10.282;2023-04-07T02:32:48;101470.44;;;8.36;48.36
20942;BME280;10630;53.734;10.282;2023-04-07T02:35:15;101471.84;;;8.40;48.40
20942;BME280;10630;53.734;10.282;2023-04-07T02:37:56;101480.72;;;8.19;48.20
20942;BME280;10630;53.734;10.282;2023-04-07T02:40:23;101482.75;;;8.37;48.24
20942;BME280;10630;53.734;10.282;2023-04-07T02:43:04;101487.09;;;8.69;47.92
20942;BME280;10630;53.734;10.282;2023-04-07T02:45:31;101485.38;;;8.58;47.85
20942;BME280;10630;53.734;10.282;2023-04-07T02:48:00;101482.28;;;8.32;48.01
20942;BME280;10630;53.734;10.282;2023-04-07T02:50:27;101486.69;;;8.12;48.97
20942;BME280;10630;53.734;10.282;2023-04-07T02:52:55;101487.16;;;8.27;48.95
20942;BME280;10630;53.734;10.282;2023-04-07T02:55:22;101486.44;;;7.93;49.00
20942;BME280;10630;53.734;10.282;2023-04-07T02:57:50;101488.28;;;8.03;49.00
20942;BME280;10630;53.734;10.282;2023-04-07T03:00:19;101485.69;;;8.13;48.76
20942;BME280;10630;53.734;10.282;2023-04-07T03:02:47;101490.41;;;8.40;48.63
20942;BME280;10630;53.734;10.282;2023-04-07T03:05:15;101490.22;;;8.22;48.34
20942;BME280;10630;53.734;10.282;2023-04-07T03:07:42;101483.84;;;8.34;48.03
20942;BME280;10630;53.734;10.282;2023-04-07T03:10:18;101487.31;;;8.04;48.31
20942;BME280;10630;53.734;10.282;2023-04-07T03:12:45;101486.91;;;8.30;48.26
20942;BME280;10630;53.734;10.282;2023-04-07T03:15:25;101485.78;;;8.32;47.97
20942;BME280;10630;53.734;10.282;2023-04-07T03:17:53;101488.91;;;7.85;48.16
20942;BME280;10630;53.734;10.282;2023-04-07T03:20:20;101491.47;;;7.97;48.73
20942;BME280;10630;53.734;10.282;2023-04-07T03:22:49;101494.56;;;8.02;48.74
20942;BME280;10630;53.734;10.282;2023-04-07T03:25:16;101496.44;;;8.11;48.92
20942;BME280;10630;53.734;10.282;2023-04-07T03:27:43;101490.78;;;7.52;49.01
20942;BME280;10630;53.734;10.282;2023-04-07T03:30:10;101494.25;;;7.74;49.73
20942;BME280;10630;53.734;10.282;2023-04-07T03:32:37;101499.75;;;7.82;49.65
20942;BME280;10630;53.734;10.282;2023-04-07T03:35:04;101496.78;;;7.97;49.26
20942;BME280;10630;53.734;10.282;2023-04-07T03:37:31;101491.38;;;7.77;49.38
20942;BME280;10630;53.734;10.282;2023-04-07T03:39:57;101504.47;;;7.57;49.41
20942;BME280;10630;53.734;10.282;2023-04-07T03:42:24;101494.13;;;7.75;49.58
20942;BME280;10630;53.734;10.282;2023-04-07T03:44:50;101503.81;;;7.44;49.68
20942;BME280;10630;53.734;10.282;2023-04-07T03:47:18;101501.69;;;7.38;50.03
20942;BME280;10630;53.734;10.282;2023-04-07T03:49:44;101494.84;;;7.78;49.74
20942;BME280;10630;53.734;10.282;2023-04-07T03:52:11;101505.84;;;7.73;49.70
20942;BME280;10630;53.734;10.282;2023-04-07T03:54:37;101507.28;;;7.77;49.58
20942;BME280;10630;53.734;10.282;2023-04-07T03:57:04;101508.28;;;7.65;49.45
20942;BME280;10630;53.734;10.282;2023-04-07T03:59:31;101511.97;;;7.20;50.42
20942;BME280;10630;53.734;10.282;2023-04-07T04:01:58;101511.25;;;7.50;50.34
20942;BME280;10630;53.734;10.282;2023-04-07T04:04:24;101515.44;;;7.20;50.38
20942;BME280;10630;53.734;10.282;2023-04-07T04:06:51;101513.16;;;7.48;50.67
20942;BME280;10630;53.734;10.282;2023-04-07T04:09:18;101516.31;;;7.42;50.61
20942;BME280;10630;53.734;10.282;2023-04-07T04:11:46;101522.06;;;7.47;50.43
20942;BME280;10630;53.734;10.282;2023-04-07T04:14:13;101519.91;;;7.52;50.40
20942;BME280;10630;53.734;10.282;2023-04-07T04:16:52;101534.38;;;7.48;50.04
20942;BME280;10630;53.734;10.282;2023-04-07T04:19:30;101523.47;;;7.63;50.04
20942;BME280;10630;53.734;10.282;2023-04-07T04:21:57;101532.81;;;7.13;51.09
20942;BME280;10630;53.734;10.282;2023-04-07T04:24:25;101526.69;;;7.45;50.51
20942;BME280;10630;53.734;10.282;2023-04-07T04:26:52;101531.25;;;7.43;50.67
20942;BME280;10630;53.734;10.282;2023-04-07T04:31:57;101537.06;;;7.90;50.01
20942;BME280;10630;53.734;10.282;2023-04-07T04:34:37;101528.22;;;8.01;49.78
20942;BME280;10630;53.734;10.282;2023-04-07T04:37:04;101535.34;;;8.32;48.90
20942;BME280;10630;53.734;10.282;2023-04-07T04:39:32;101543.22;;;7.70;49.22
20942;BME280;10630;53.734;10.282;2023-04-07T04:41:59;101538.88;;;6.92;49.91
20942;BME280;10630;53.734;10.282;2023-04-07T04:44:26;101546.03;;;8.20;49.72
20942;BME280;10630;53.734;10.282;2023-04-07T04:46:56;101546.03;;;8.20;48.66
20942;BME280;10630;53.734;10.282;2023-04-07T04:49:24;101547.38;;;8.36;48.51
20942;BME280;10630;53.734;10.282;2023-04-07T04:51:51;101549.34;;;8.65;47.88
20942;BME280;10630;53.734;10.282;2023-04-07T04:54:18;101551.38;;;8.82;47.54
20942;BME280;10630;53.734;10.282;2023-04-07T04:56:47;101555.00;;;8.81;46.99
20942;BME280;10630;53.734;10.282;2023-04-07T04:59:15;101557.28;;;8.55;47.36
20942;BME280;10630;53.734;10.282;2023-04-07T05:01:43;101557.13;;;8.57;47.38
20942;BME280;10630;53.734;10.282;2023-04-07T05:04:10;101552.50;;;8.80;47.45
20942;BME280;10630;53.734;10.282;2023-04-07T05:06:37;101565.56;;;8.62;47.29
20942;BME280;10630;53.734;10.282;2023-04-07T05:09:05;101571.19;;;8.78;47.22
20942;BME280;10630;53.734;10.282;2023-04-07T05:11:32;101568.00;;;8.84;46.98
20942;BME280;10630;53.734;10.282;2023-04-07T05:14:07;101568.69;;;8.86;46.82
20942;BME280;10630;53.734;10.282;2023-04-07T05:16:34;101576.09;;;8.52;47.16
20942;BME280;10630;53.734;10.282;2023-04-07T05:19:01;101574.13;;;8.75;47.23
20942;BME280;10630;53.734;10.282;2023-04-07T05:21:28;101572.91;;;8.89;47.17
20942;BME280;10630;53.734;10.282;2023-04-07T05:23:55;101587.16;;;8.88;46.78
20942;BME280;10630;53.734;10.282;2023-04-07T05:26:23;101581.59;;;9.01;46.64
20942;BME280;10630;53.734;10.282;2023-04-07T05:28:50;101590.47;;;8.80;47.20
20942;BME280;10630;53.734;10.282;2023-04-07T05:31:18;101591.53;;;8.99;47.03
20942;BME280;10630;53.734;10.282;2023-04-07T05:33:45;101591.56;;;8.68;47.33
20942;BME280;10630;53.734;10.282;2023-04-07T05:36:21;101591.06;;;8.94;47.17
20942;BME280;10630;53.734;10.282;2023-04-07T05:38:50;101589.50;;;8.81;47.04
20942;BME280;10630;53.734;10.282;2023-04-07T05:41:17;101593.56;;;8.85;46.92
20942;BME280;10630;53.734;10.282;2023-04-07T05:43:45;101596.22;;;8.85;47.04
20942;BME280;10630;53.734;10.282;2023-04-07T05:46:12;101583.03;;;9.15;47.04
20942;BME280;10630;53.734;10.282;2023-04-07T05:48:40;101591.19;;;9.33;46.64
20942;BME280;10630;53.734;10.282;2023-04-07T05:51:08;101603.25;;;9.57;46.04
20942;BME280;10630;53.734;10.282;2023-04-07T05:53:37;101598.75;;;9.38;46.08
20942;BME280;10630;53.734;10.282;2023-04-07T05:56:04;101605.78;;;9.78;46.23
20942;BME280;10630;53.734;10.282;2023-04-07T05:58:31;101602.66;;;9.43;45.73
20942;BME280;10630;53.734;10.282;2023-04-07T06:01:00;101606.03;;;10.04;45.81
20942;BME280;10630;53.734;10.282;2023-04-07T06:03:26;101609.38;;;10.26;45.20
20942;BME280;10630;53.734;10.282;2023-04-07T06:05:53;101614.97;;;10.33;44.94
20942;BME280;10630;53.734;10.282;2023-04-07T06:08:20;101615.03;;;9.84;44.92
20942;BME280;10630;53.734;10.282;2023-04-07T06:10:47;101614.72;;;9.87;46.08
20942;BME280;10630;53.734;10.282;2023-04-07T06:13:13;101621.41;;;10.30;45.62
20942;BME280;10630;53.734;10.282;2023-04-07T06:15:40;101613.81;;;10.55;45.19
20942;BME280;10630;53.734;10.282;2023-04-07T06:21:00;101620.41;;;10.88;44.55
20942;BME280;10630;53.734;10.282;2023-04-07T06:26:26;101628.00;;;10.45;43.81
20942;BME280;10630;53.734;10.282;2023-04-07T06:28:53;101635.13;;;11.20;43.65
20942;BME280;10630;53.734;10.282;2023-04-07T06:31:20;101632.13;;;11.05;43.73
20942;BME280;10630;53.734;10.282;2023-04-07T06:33:48;101637.81;;;11.38;43.63
20942;BME280;10630;53.734;10.282;2023-04-07T06:36:15;101639.41;;;11.59;43.38
20942;BME280;10630;53.734;10.282;2023-04-07T06:38:42;101639.59;;;11.02;43.69
20942;BME280;10630;53.734;10.282;2023-04-07T06:41:09;101635.56;;;10.88;43.69
20942;BME280;10630;53.734;10.282;2023-04-07T06:43:46;101644.53;;;10.87;43.69
20942;BME280;10630;53.734;10.282;2023-04-07T06:46:13;101641.59;;;11.18;43.18
20942;BME280;10630;53.734;10.282;2023-04-07T06:48:40;101644.81;;;10.93;43.15
20942;BME280;10630;53.734;10.282;2023-04-07T06:51:08;101649.09;;;11.78;43.22
20942;BME280;10630;53.734;10.282;2023-04-07T06:53:35;101642.19;;;12.30;42.13
20942;BME280;10630;53.734;10.282;2023-04-07T06:56:05;101648.34;;;12.22;41.66
20942;BME280;10630;53.734;10.282;2023-04-07T06:58:33;101647.94;;;11.63;41.98
20942;BME280;10630;53.734;10.282;2023-04-07T07:01:02;101655.84;;;12.45;42.06
20942;BME280;10630;53.734;10.282;2023-04-07T07:03:31;101648.78;;;12.96;41.02
20942;BME280;10630;53.734;10.282;2023-04-07T07:05:57;101661.78;;;12.39;41.14
20942;BME280;10630;53.734;10.282;2023-04-07T07:08:25;101656.59;;;12.90;41.45
20942;BME280;10630;53.734;10.282;2023-04-07T07:10:53;101660.97;;;12.64;41.06
20942;BME280;10630;53.734;10.282;2023-04-07T07:13:21;101652.88;;;13.17;40.39
20942;BME280;10630;53.734;10.282;2023-04-07T07:15:52;101659.28;;;13.33;39.77
20942;BME280;10630;53.734;10.282;2023-04-07T07:18:19;101660.13;;;12.90;39.61
20942;BME280;10630;53.734;10.282;2023-04-07T07:20:45;101665.03;;;12.50;40.24
20942;BME280;10630;53.734;10.282;2023-04-07T07:23:13;101668.03;;;12.74;40.16
20942;BME280;10630;53.734;10.282;2023-04-07T07:25:39;101657.50;;;13.07;40.12
20942;BME280;10630;53.734;10.282;2023-04-07T07:28:06;101661.53;;;13.11;40.29
20942;BME280;10630;53.734;10.282;2023-04-07T07:30:32;101657.44;;;14.17;39.43
20942;BME280;10630;53.734;10.282;2023-04-07T07:32:59;101666.53;;;13.49;38.86
20942;BME280;10630;53.734;10.282;2023-04-07T07:35:25;101665.44;;;13.68;38.80
20942;BME280;10630;53.734;10.282;2023-04-07T07:37:52;101672.44;;;13.77;38.92
20942;BME280;10630;53.734;10.282;2023-04-07T07:40:19;101666.28;;;12.91;39.02
20942;BME280;10630;53.734;10.282;2023-04-07T07:42:45;101675.09;;;13.60;39.01
20942;BME280;10630;53.734;10.282;2023-04-07T07:45:12;101680.16;;;13.88;38.47
20942;BME280;10630;53.734;10.282;2023-04-07T07:47:39;101678.81;;;14.59;37.98
20942;BME280;10630;53.734;10.282;2023-04-07T07:50:06;101681.66;;;13.83;38.70
20942;BME280;10630;53.734;10.282;2023-04-07T07:52:33;101683.84;;;14.45;38.21
20942;BME280;10630;53.734;10.282;2023-04-07T07:55:01;101682.06;;;15.42;37.14
20942;BME280;10630;53.734;10.282;2023-04-07T07:57:30;101683.03;;;14.12;37.21
20942;BME280;10630;53.734;10.282;2023-04-07T07:59:59;101689.44;;;15.08;37.63
20942;BME280;10630;53.734;10.282;2023-04-07T08:02:30;101692.88;;;14.61;37.57
20942;BME280;10630;53.734;10.282;2023-04-07T08:05:04;101687.84;;;15.30;37.29
20942;BME280;10630;53.734;10.282;2023-04-07T08:10:03;101694.06;;;14.08;38.02
20942;BME280;10630;53.734;10.282;2023-04-07T08:12:31;101695.91;;;14.57;38.21
20942;BME280;10630;53.734;10.282;2023-04-07T08:14:58;101693.97;;;15.47;37.68
20942;BME280;10630;53.734;10.282;2023-04-07T08:17:26;101693.03;;;15.32;36.61
20942;BME280;10630;53.734;10.282;2023-04-07T08:19:53;101700.00;;;15.49;36.67
20942;BME280;10630;53.734;10.282;2023-04-07T08:22:20;101697.97;;;16.06;36.06
20942;BME280;10630;53.734;10.282;2023-04-07T08:24:47;101699.94;;;15.18;36.59
20942;BME280;10630;53.734;10.282;2023-04-07T08:27:13;101706.56;;;14.91;37.03
20942;BME280;10630;53.734;10.282;2023-04-07T08:29:40;101705.38;;;15.73;36.34
20942;BME280;10630;53.734;10.282;2023-04-07T08:35:07;101700.22;;;15.40;35.93
20942;BME280;10630;53.734;10.282;2023-04-07T08:37:34;101701.94;;;15.32;35.82
20942;BME280;10630;53.734;10.282;2023-04-07T08:40:02;101692.53;;;14.88;35.72
20942;BME280;10630;53.734;10.282;2023-04-07T08:42:30;101699.53;;;15.69;35.45
20942;BME280;10630;53.734;10.282;2023-04-07T08:45:01;101701.34;;;15.85;35.14
20942;BME280;10630;53.734;10.282;2023-04-07T08:47:29;101702.09;;;15.94;35.08
20942;BME280;10630;53.734;10.282;2023-04-07T08:49:56;101705.56;;;16.26;35.53
20942;BME280;10630;53.734;10.282;2023-04-07T08:52:26;101701.66;;;16.67;35.15
20942;BME280;10630;53.734;10.282;2023-04-07T08:54:58;101710.34;;;15.92;34.87
20942;BME280;10630;53.734;10.282;2023-04-07T08:57:29;101712.16;;;16.38;34.56
20942;BME280;10630;53.734;10.282;2023-04-07T08:59:57;101708.91;;;16.28;34.52
20942;BME280;10630;53.734;10.282;2023-04-07T09:02:25;101719.66;;;16.05;35.30
20942;BME280;10630;53.734;10.282;2023-04-07T09:04:52;101713.25;;;16.29;34.53
20942;BME280;10630;53.734;10.282;2023-04-07T09:07:19;101713.13;;;15.67;34.86
20942;BME280;10630;53.734;10.282;2023-04-07T09:09:45;101707.38;;;16.49;34.51
20942;BME280;10630;53.734;10.282;2023-04-07T09:12:13;101709.22;;;16.48;33.41
20942;BME280;10630;53.734;10.282;2023-04-07T09:14:39;101713.41;;;16.51;34.00
20942;BME280;10630;53.734;10.282;2023-04-07T09:17:06;101713.47;;;16.81;34.12
20942;BME280;10630;53.734;10.282;2023-04-07T09:19:32;101710.41;;;15.76;35.31
20942;BME280;10630;53.734;10.282;2023-04-07T09:22:00;101711.00;;;14.67;36.86
20942;BME280;10630;53.734;10.282;2023-04-07T09:24:27;101716.06;;;15.58;38.18
20942;BME280;10630;53.734;10.282;2023-04-07T09:27:11;101709.19;;;15.87;36.81
20942;BME280;10630;53.734;10.282;2023-04-07T09:29:42;101722.00;;;14.47;37.43
20942;BME280;10630;53.734;10.282;2023-04-07T09:32:09;101705.03;;;15.76;37.31
20942;BME280;10630;53.734;10.282;2023-04-07T09:34:38;101716.88;;;15.18;36.89
20942;BME280;10630;53.734;10.282;2023-04-07T09:37:06;101717.97;;;14.02;37.57
20942;BME280;10630;53.734;10.282;2023-04-07T09:39:47;101720.34;;;14.71;38.50
20942;BME280;10630;53.734;10.282;2023-04-07T09:42:15;101706.84;;;15.83;37.13
20942;BME280;10630;53.734;10.282;2023-04-07T09:44:41;101715.31;;;15.72;37.90
20942;BME280;10630;53.734;10.282;2023-04-07T09:47:09;101704.91;;;16.24;36.42
20942;BME280;10630;53.734;10.282;2023-04-07T09:49:49;101706.25;;;14.52;37.68
20942;BME280;10630;53.734;10.282;2023-04-07T09:52:18;101702.50;;;15.11;39.26
20942;BME280;10630;53.734;10.282;2023-04-07T09:54:45;101702.44;;;16.37;37.71
20942;BME280;10630;53.734;10.282;2023-04-07T09:57:13;101700.66;;;17.13;35.97
20942;BME280;10630;53.734;10.282;2023-04-07T09:59:40;101697.50;;;15.00;37.55
20942;BME280;10630;53.734;10.282;2023-04-07T10:02:10;101705.88;;;13.65;40.99
20942;BME280;10630;53.734;10.282;2023-04-07T10:04:38;101693.00;;;15.40;39.97
20942;BME280;10630;53.734;10.282;2023-04-07T10:07:10;101701.06;;;15.32;37.99
20942;BME280;10630;53.734;10.282;2023-04-07T10:09:37;101691.56;;;14.23;38.81
20942;BME280;10630;53.734;10.282;2023-04-07T10:12:04;101704.19;;;15.75;38.77
20942;BME280;10630;53.734;10.282;2023-04-07T10:14:32;101705.50;;;16.49;36.70
20942;BME280;10630;53.734;10.282;2023-04-07T10:17:00;101699.78;;;15.82;35.98
20942;BME280;10630;53.734;10.282;2023-04-07T10:19:29;101700.34;;;15.46;37.38
20942;BME280;10630;53.734;10.282;2023-04-07T10:21:57;101705.69;;;15.86;36.82
20942;BME280;10630;53.734;10.282;2023-04-07T10:27:13;101702.94;;;16.18;34.99
20942;BME280;10630;53.734;10.282;2023-04-07T10:29:40;101709.91;;;16.65;34.63
20942;BME280;10630;53.734;10.282;2023-04-07T10:32:07;101710.22;;;16.32;34.88
20942;BME280;10630;53.734;10.282;2023-04-07T10:37:16;101712.53;;;16.12;35.66
20942;BME280;10630;53.734;10.282;2023-04-07T10:39:47;101712.66;;;14.43;38.09
20942;BME280;10630;53.734;10.282;2023-04-07T10:45:16;101722.03;;;12.59;45.54
20942;BME280;10630;53.734;10.282;2023-04-07T10:50:26;101706.88;;;13.72;44.30
20942;BME280;10630;53.734;10.282;2023-04-07T10:55:53;101723.28;;;12.11;45.69
20942;BME280;10630;53.734;10.282;2023-04-07T11:03:35;101732.66;;;13.04;46.49
20942;BME280;10630;53.734;10.282;2023-04-07T11:06:05;101723.00;;;13.88;44.18
20942;BME280;10630;53.734;10.282;2023-04-07T11:08:34;101720.16;;;13.39;43.32
20942;BME280;10630;53.734;10.282;2023-04-07T11:11:02;101728.28;;;12.50;46.69
20942;BME280;10630;53.734;10.282;2023-04-07T11:13:43;101727.97;;;12.53;46.46
20942;BME280;10630;53.734;10.282;2023-04-07T11:16:12;101734.41;;;12.24;48.62
20942;BME280;10630;53.734;10.282;2023-04-07T11:18:39;101731.78;;;11.96;48.82
20942;BME280;10630;53.734;10.282;2023-04-07T11:21:08;101733.00;;;11.28;49.00
20942;BME280;10630;53.734;10.282;2023-04-07T11:23:40;101731.44;;;11.81;50.05
20942;BME280;10630;53.734;10.282;2023-04-07T11:26:08;101724.41;;;12.44;47.73
20942;BME280;10630;53.734;10.282;2023-04-07T11:28:47;101727.94;;;11.81;47.94
20942;BME280;10630;53.734;10.282;2023-04-07T11:31:24;101723.03;;;11.58;49.64
20942;BME280;10630;53.734;10.282;2023-04-07T11:33:54;101728.59;;;11.09;48.27
20942;BME280;10630;53.734;10.282;2023-04-07T11:36:25;101732.75;;;11.95;48.57
20942;BME280;10630;53.734;10.282;2023-04-07T11:38:53;101732.19;;;12.38;46.59
20942;BME280;10630;53.734;10.282;2023-04-07T11:41:22;101725.38;;;11.89;48.58
20942;BME280;10630;53.734;10.282;2023-04-07T11:43:56;101731.28;;;12.11;46.69
20942;BME280;10630;53.734;10.282;2023-04-07T11:46:28;101733.47;;;11.69;48.87
20942;BME280;10630;53.734;10.282;2023-04-07T11:49:06;101734.34;;;13.05;47.23
20942;BME280;10630;53.734;10.282;2023-04-07T11:51:33;101726.38;;;13.48;45.87
20942;BME280;10630;53.734;10.282;2023-04-07T11:54:02;101727.91;;;12.89;46.07
20942;BME280;10630;53.734;10.282;2023-04-07T11:56:40;101734.69;;;12.57;46.85
20942;BME280;10630;53.734;10.282;2023-04-07T11:59:17;101733.44;;;13.65;47.18
20942;BME280;10630;53.734;10.282;2023-04-07T12:01:44;101733.25;;;13.50;45.79
20942;BME280;10630;53.734;10.282;2023-04-07T12:04:12;101730.22;;;13.19;47.06
20942;BME280;10630;53.734;10.282;2023-04-07T12:06:44;101731.16;;;12.75;47.92
20942;BME280;10630;53.734;10.282;2023-04-07T12:09:28;101738.28;;;12.30;48.30
20942;BME280;10630;53.734;10.282;2023-04-07T12:11:56;101733.19;;;12.37;48.77
20942;BME280;10630;53.734;10.282;2023-04-07T12:14:23;101731.50;;;12.80;48.40
20942;BME280;10630;53.734;10.282;2023-04-07T12:16:51;101739.41;;;13.16;46.86
20942;BME280;10630;53.734;10.282;2023-04-07T12:19:22;101730.28;;;13.01;46.08
20942;BME280;10630;53.734;10.282;2023-04-07T12:21:49;101736.06;;;13.14;47.30
20942;BME280;10630;53.734;10.282;2023-04-07T12:24:17;101743.56;;;13.19;46.80
20942;BME280;10630;53.734;10.282;2023-04-07T12:26:46;101731.09;;;12.93;48.67
20942;BME280;10630;53.734;10.282;2023-04-07T12:29:17;101734.69;;;12.57;48.16
20942;BME280;10630;53.734;10.282;2023-04-07T12:31:46;101742.69;;;12.57;50.38
20942;BME280;10630;53.734;10.282;2023-04-07T12:34:19;101738.69;;;12.79;49.64
20942;BME280;10630;53.734;10.282;2023-04-07T12:36:46;101733.03;;;13.95;48.51
20942;BME280;10630;53.734;10.282;2023-04-07T12:39:13;101737.00;;;13.74;46.44
20942;BME280;10630;53.734;10.282;2023-04-07T12:41:40;101747.34;;;13.69;48.21
20942;BME280;10630;53.734;10.282;2023-04-07T12:44:07;101740.81;;;13.28;46.42
20942;BME280;10630;53.734;10.282;2023-04-07T12:46:34;101744.09;;;14.08;46.24
20942;BME280;10630;53.734;10.282;2023-04-07T12:49:01;101755.59;;;12.08;47.74
20942;BME280;10630;53.734;10.282;2023-04-07T12:51:29;101753.31;;;12.49;49.41
20942;BME280;10630;53.734;10.282;2023-04-07T12:53:56;101747.56;;;12.62;48.90
20942;BME280;10630;53.734;10.282;2023-04-07T12:56:23;101754.06;;;12.23;50.31
20942;BME280;10630;53.734;10.282;2023-04-07T12:58:50;101749.13;;;12.46;50.78
20942;BME280;10630;53.734;10.282;2023-04-07T13:01:19;101745.00;;;12.52;51.53
20942;BME280;10630;53.734;10.282;2023-04-07T13:03:46;101750.00;;;12.55;52.68
20942;BME280;10630;53.734;10.282;2023-04-07T13:06:13;101744.94;;;12.44;53.38
20942;BME280;10630;53.734;10.282;2023-04-07T13:08:42;101742.69;;;11.57;55.47
20942;BME280;10630;53.734;10.282;2023-04-07T13:11:09;101744.75;;;11.63;57.39
20942;BME280;10630;53.734;10.282;2023-04-07T13:13:37;101757.97;;;12.11;56.50
20942;BME280;10630;53.734;10.282;2023-04-07T13:16:03;101750.19;;;12.54;56.12
20942;BME280;10630;53.734;10.282;2023-04-07T13:18:32;101761.72;;;12.18;55.27
20942;BME280;10630;53.734;10.282;2023-04-07T13:20:59;101750.50;;;11.68;56.88
20942;BME280;10630;53.734;10.282;2023-04-07T13:23:47;101752.00;;;12.97;57.45
20942;BME280;10630;53.734;10.282;2023-04-07T13:26:16;101753.97;;;13.22;53.91
20942;BME280;10630;53.734;10.282;2023-04-07T13:28:42;101758.84;;;12.74;54.65
20942;BME280;10630;53.734;10.282;2023-04-07T13:31:11;101769.19;;;12.32;56.25
20942;BME280;10630;53.734;10.282;2023-04-07T13:33:43;101763.16;;;12.12;59.00
20942;BME280;10630;53.734;10.282;2023-04-07T13:36:12;101769.94;;;11.51;57.81
20942;BME280;10630;53.734;10.282;2023-04-07T13:38:45;101768.34;;;12.14;58.29